KCVN/CVN METAR and TAF weather

Enter ICAO airport designator
Station Type Date Time Source
KCVN METAR 2020/02/22 06:56 UTC NOAA

KCVN 220656Z AUTO 22011KT 10SM CLR 02/M02 A3026 RMK AO2 SLP255 T00171017 401061078 FZRANO


Station Type Date Time Source
KCVN Decoded METAR 2020/02/22 06:56 UTC NOAA

Clovis, Clovis Municipal Airport, NM, United States (KCVN) 34-26N 103-05W
Feb 22, 2020 - 01:56 AM EST / 2020.02.22 0656 UTC
Wind: from the SW (220 degrees) at 13 MPH (11 KT):0
Visibility: 10 mile(s):0
Sky conditions: clear
Temperature: 35.1 F (1.7 C)
Dew Point: 28.9 F (-1.7 C)
Relative Humidity: 78%
Pressure (altimeter): 30.26 in. Hg (1024 hPa)
ob: KCVN 220656Z AUTO 22011KT 10SM CLR 02/M02 A3026 RMK AO2 SLP255 T00171017 401061078 FZRANO
cycle: 7

Station Type Date Time Source
KCVN TAF UTC NOAA

Error!

Example: see airport list